sensor_id;sensor_type;location;lat;lon;timestamp;pressure;altitude;pressure_sealevel;temperature;humidity
22181;BME280;11256;50.830;12.834;2023-02-22T00:03:48;97687.41;;;10.00;70.77
22181;BME280;11256;50.830;12.834;2023-02-22T00:08:48;97664.69;;;9.91;70.49
22181;BME280;11256;50.830;12.834;2023-02-22T00:13:49;97683.63;;;9.96;70.65
22181;BME280;11256;50.830;12.834;2023-02-22T00:18:50;97674.44;;;9.92;70.69
22181;BME280;11256;50.830;12.834;2023-02-22T00:23:50;97672.81;;;9.91;70.75
22181;BME280;11256;50.830;12.834;2023-02-22T00:28:53;97669.03;;;9.92;70.62
22181;BME280;11256;50.830;12.834;2023-02-22T00:33:54;97664.16;;;9.89;70.91
22181;BME280;11256;50.830;12.834;2023-02-22T00:38:54;97669.06;;;9.87;70.66
22181;BME280;11256;50.830;12.834;2023-02-22T00:43:54;97673.91;;;9.90;70.91
22181;BME280;11256;50.830;12.834;2023-02-22T00:48:55;97677.19;;;9.87;70.94
22181;BME280;11256;50.830;12.834;2023-02-22T00:53:55;97667.47;;;9.81;70.65
22181;BME280;11256;50.830;12.834;2023-02-22T00:58:56;97658.25;;;9.82;70.90
22181;BME280;11256;50.830;12.834;2023-02-22T01:03:56;97652.59;;;9.73;70.82
22181;BME280;11256;50.830;12.834;2023-02-22T01:08:57;97642.56;;;9.69;70.73
22181;BME280;11256;50.830;12.834;2023-02-22T01:13:57;97648.53;;;9.76;71.14
22181;BME280;11256;50.830;12.834;2023-02-22T01:18:59;97645.81;;;9.76;70.85
22181;BME280;11256;50.830;12.834;2023-02-22T01:24:00;97642.03;;;9.77;70.70
22181;BME280;11256;50.830;12.834;2023-02-22T01:29:00;97643.13;;;9.76;70.91
22181;BME280;11256;50.830;12.834;2023-02-22T01:34:01;97628.00;;;9.65;70.83
22181;BME280;11256;50.830;12.834;2023-02-22T01:39:02;97637.72;;;9.76;70.91
22181;BME280;11256;50.830;12.834;2023-02-22T01:44:20;97628.78;;;9.70;71.02
22181;BME280;11256;50.830;12.834;2023-02-22T01:49:24;97636.63;;;9.72;70.86
22181;BME280;11256;50.830;12.834;2023-02-22T01:54:30;97625.53;;;9.73;71.11
22181;BME280;11256;50.830;12.834;2023-02-22T01:59:34;97623.38;;;9.70;70.99
22181;BME280;11256;50.830;12.834;2023-02-22T02:04:38;97610.09;;;9.69;70.93
22181;BME280;11256;50.830;12.834;2023-02-22T02:09:55;97624.47;;;9.69;71.19
22181;BME280;11256;50.830;12.834;2023-02-22T02:15:16;97623.13;;;9.67;70.90
22181;BME280;11256;50.830;12.834;2023-02-22T02:20:31;97611.78;;;9.65;71.06
22181;BME280;11256;50.830;12.834;2023-02-22T02:25:49;97615.53;;;9.69;71.06
22181;BME280;11256;50.830;12.834;2023-02-22T02:36:18;97594.19;;;9.62;71.14
22181;BME280;11256;50.830;12.834;2023-02-22T02:47:04;97595.00;;;9.63;71.12
22181;BME280;11256;50.830;12.834;2023-02-22T02:52:08;97580.69;;;9.57;71.42
22181;BME280;11256;50.830;12.834;2023-02-22T02:57:09;97583.91;;;9.59;71.35
22181;BME280;11256;50.830;12.834;2023-02-22T03:08:08;97590.16;;;9.60;71.48
22181;BME280;11256;50.830;12.834;2023-02-22T03:13:32;97571.25;;;9.50;71.49
22181;BME280;11256;50.830;12.834;2023-02-22T03:24:06;97568.25;;;9.56;71.57
22181;BME280;11256;50.830;12.834;2023-02-22T03:29:10;97562.06;;;9.46;71.79
22181;BME280;11256;50.830;12.834;2023-02-22T03:34:16;97572.88;;;9.46;71.72
22181;BME280;11256;50.830;12.834;2023-02-22T03:39:18;97570.16;;;9.46;71.77
22181;BME280;11256;50.830;12.834;2023-02-22T03:44:24;97557.75;;;9.40;72.01
22181;BME280;11256;50.830;12.834;2023-02-22T03:49:33;97569.69;;;9.34;72.88
22181;BME280;11256;50.830;12.834;2023-02-22T03:54:34;97568.84;;;9.33;71.93
22181;BME280;11256;50.830;12.834;2023-02-22T03:59:36;97577.53;;;9.35;72.12
22181;BME280;11256;50.830;12.834;2023-02-22T04:04:37;97580.50;;;9.34;72.03
22181;BME280;11256;50.830;12.834;2023-02-22T04:09:37;97570.75;;;9.33;72.27
22181;BME280;11256;50.830;12.834;2023-02-22T04:14:38;97569.94;;;9.32;71.92
22181;BME280;11256;50.830;12.834;2023-02-22T04:19:39;97569.69;;;9.29;72.01
22181;BME280;11256;50.830;12.834;2023-02-22T04:24:39;97558.91;;;9.19;72.24
22181;BME280;11256;50.830;12.834;2023-02-22T04:29:40;97566.16;;;9.28;72.18
22181;BME280;11256;50.830;12.834;2023-02-22T04:34:41;97563.19;;;9.30;71.94
22181;BME280;11256;50.830;12.834;2023-02-22T04:39:41;97546.72;;;9.16;71.98
22181;BME280;11256;50.830;12.834;2023-02-22T04:44:41;97559.97;;;9.28;72.16
22181;BME280;11256;50.830;12.834;2023-02-22T04:49:42;97561.84;;;9.27;72.26
22181;BME280;11256;50.830;12.834;2023-02-22T04:54:43;97561.56;;;9.29;72.16
22181;BME280;11256;50.830;12.834;2023-02-22T04:59:43;97554.56;;;9.28;72.39
22181;BME280;11256;50.830;12.834;2023-02-22T05:04:45;97537.28;;;9.14;72.32
22181;BME280;11256;50.830;12.834;2023-02-22T05:09:45;97536.75;;;9.17;72.55
22181;BME280;11256;50.830;12.834;2023-02-22T05:14:46;97535.91;;;9.16;72.27
22181;BME280;11256;50.830;12.834;2023-02-22T05:19:46;97539.19;;;9.13;72.02
22181;BME280;11256;50.830;12.834;2023-02-22T05:24:46;97538.63;;;9.11;72.42
22181;BME280;11256;50.830;12.834;2023-02-22T05:29:47;97531.38;;;9.07;72.40
22181;BME280;11256;50.830;12.834;2023-02-22T05:34:47;97538.09;;;9.14;72.54
22181;BME280;11256;50.830;12.834;2023-02-22T05:39:48;97527.03;;;9.11;72.67
22181;BME280;11256;50.830;12.834;2023-02-22T05:44:48;97517.84;;;9.02;72.56
22181;BME280;11256;50.830;12.834;2023-02-22T05:49:48;97534.06;;;9.12;72.52
22181;BME280;11256;50.830;12.834;2023-02-22T05:54:49;97534.06;;;9.12;72.56
22181;BME280;11256;50.830;12.834;2023-02-22T05:59:49;97524.34;;;9.06;72.65
22181;BME280;11256;50.830;12.834;2023-02-22T06:04:50;97524.88;;;9.03;72.61
22181;BME280;11256;50.830;12.834;2023-02-22T06:09:50;97533.53;;;9.05;72.57
22181;BME280;11256;50.830;12.834;2023-02-22T06:14:52;97540.56;;;9.06;72.58
22181;BME280;11256;50.830;12.834;2023-02-22T06:19:52;97515.72;;;8.94;72.52
22181;BME280;11256;50.830;12.834;2023-02-22T06:24:52;97541.09;;;9.03;72.46
22181;BME280;11256;50.830;12.834;2023-02-22T06:29:52;97540.81;;;9.04;72.86
22181;BME280;11256;50.830;12.834;2023-02-22T06:34:53;97520.06;;;8.90;72.92
22181;BME280;11256;50.830;12.834;2023-02-22T06:39:53;97524.38;;;8.86;72.99
22181;BME280;11256;50.830;12.834;2023-02-22T06:44:53;97536.78;;;8.92;72.93
22181;BME280;11256;50.830;12.834;2023-02-22T06:49:55;97545.16;;;9.00;72.63
22181;BME280;11256;50.830;12.834;2023-02-22T06:54:55;97553.53;;;9.04;72.85
22181;BME280;11256;50.830;12.834;2023-02-22T06:59:56;97550.81;;;9.04;72.76
22181;BME280;11256;50.830;12.834;2023-02-22T07:04:56;97528.16;;;8.95;73.07
22181;BME280;11256;50.830;12.834;2023-02-22T07:09:56;97540.03;;;8.99;72.95
22181;BME280;11256;50.830;12.834;2023-02-22T07:14:57;97536.78;;;8.97;72.77
22181;BME280;11256;50.830;12.834;2023-02-22T07:19:57;97542.72;;;9.04;73.05
22181;BME280;11256;50.830;12.834;2023-02-22T07:24:57;97545.69;;;9.12;73.42
22181;BME280;11256;50.830;12.834;2023-02-22T07:29:59;97560.50;;;9.25;73.57
22181;BME280;11256;50.830;12.834;2023-02-22T07:34:59;97525.97;;;9.07;73.21
22181;BME280;11256;50.830;12.834;2023-02-22T07:40:02;97570.25;;;9.26;73.53
22181;BME280;11256;50.830;12.834;2023-02-22T07:45:03;97558.88;;;9.24;73.24
22181;BME280;11256;50.830;12.834;2023-02-22T07:50:03;97552.94;;;9.27;73.44
22181;BME280;11256;50.830;12.834;2023-02-22T07:55:04;97541.06;;;9.23;73.40
22181;BME280;11256;50.830;12.834;2023-02-22T08:00:06;97560.44;;;9.45;73.47
22181;BME280;11256;50.830;12.834;2023-02-22T08:05:13;97560.44;;;9.50;73.53
22181;BME280;11256;50.830;12.834;2023-02-22T08:10:15;97564.19;;;9.54;73.52
22181;BME280;11256;50.830;12.834;2023-02-22T08:15:19;97572.31;;;9.59;73.64
22181;BME280;11256;50.830;12.834;2023-02-22T08:20:20;97566.34;;;9.57;74.24
22181;BME280;11256;50.830;12.834;2023-02-22T08:25:24;97550.09;;;9.57;73.74
22181;BME280;11256;50.830;12.834;2023-02-22T08:30:25;97566.84;;;9.64;74.08
22181;BME280;11256;50.830;12.834;2023-02-22T08:35:25;97563.59;;;9.67;73.92
22181;BME280;11256;50.830;12.834;2023-02-22T08:40:28;97547.13;;;9.63;73.88
22181;BME280;11256;50.830;12.834;2023-02-22T08:45:30;97554.34;;;9.78;74.04
22181;BME280;11256;50.830;12.834;2023-02-22T08:50:31;97557.03;;;9.83;74.08
22181;BME280;11256;50.830;12.834;2023-02-22T08:55:37;97548.06;;;9.87;74.17
22181;BME280;11256;50.830;12.834;2023-02-22T09:00:38;97553.72;;;9.91;73.93
22181;BME280;11256;50.830;12.834;2023-02-22T09:05:41;97525.09;;;9.80;74.06
22181;BME280;11256;50.830;12.834;2023-02-22T09:10:41;97550.44;;;9.99;74.09
22181;BME280;11256;50.830;12.834;2023-02-22T09:15:41;97545.81;;;10.04;74.32
22181;BME280;11256;50.830;12.834;2023-02-22T09:20:42;97543.88;;;10.15;74.46
22181;BME280;11256;50.830;12.834;2023-02-22T09:25:43;97552.75;;;10.20;74.49
22181;BME280;11256;50.830;12.834;2023-02-22T09:30:44;97532.47;;;10.18;74.35
22181;BME280;11256;50.830;12.834;2023-02-22T09:35:46;97549.69;;;10.37;74.52
22181;BME280;11256;50.830;12.834;2023-02-22T09:40:49;97550.69;;;10.46;74.82
22181;BME280;11256;50.830;12.834;2023-02-22T09:46:25;97547.38;;;10.54;74.56
22181;BME280;11256;50.830;12.834;2023-02-22T09:51:39;97539.16;;;10.64;74.32
22181;BME280;11256;50.830;12.834;2023-02-22T09:56:42;97533.13;;;10.72;74.39
22181;BME280;11256;50.830;12.834;2023-02-22T10:01:48;97536.50;;;10.87;74.92
22181;BME280;11256;50.830;12.834;2023-02-22T10:07:14;97535.59;;;10.97;75.12
22181;BME280;11256;50.830;12.834;2023-02-22T10:12:38;97520.84;;;11.08;75.20
22181;BME280;11256;50.830;12.834;2023-02-22T10:18:00;97526.63;;;11.25;75.25
22181;BME280;11256;50.830;12.834;2023-02-22T10:23:58;97516.66;;;11.44;75.53
22181;BME280;11256;50.830;12.834;2023-02-22T10:28:53;97510.47;;;11.62;75.66
22181;BME280;11256;50.830;12.834;2023-02-22T10:34:01;97517.81;;;11.80;75.55
22181;BME280;11256;50.830;12.834;2023-02-22T10:39:25;97506.53;;;11.91;74.57
22181;BME280;11256;50.830;12.834;2023-02-22T10:44:26;97509.31;;;12.05;74.94
22181;BME280;11256;50.830;12.834;2023-02-22T10:49:34;97514.63;;;12.15;75.38
22181;BME280;11256;50.830;12.834;2023-02-22T10:54:40;97504.81;;;12.32;75.21
22181;BME280;11256;50.830;12.834;2023-02-22T10:59:41;97496.63;;;12.51;75.52
22181;BME280;11256;50.830;12.834;2023-02-22T11:04:53;97482.66;;;12.57;72.91
22181;BME280;11256;50.830;12.834;2023-02-22T11:10:05;97487.53;;;12.74;73.03
22181;BME280;11256;50.830;12.834;2023-02-22T11:20:29;97479.00;;;12.94;69.33
22181;BME280;11256;50.830;12.834;2023-02-22T11:25:35;97470.06;;;13.07;72.59
22181;BME280;11256;50.830;12.834;2023-02-22T11:30:37;97467.59;;;13.24;73.18
22181;BME280;11256;50.830;12.834;2023-02-22T11:46:27;97452.81;;;13.65;72.57
22181;BME280;11256;50.830;12.834;2023-02-22T11:52:06;97442.53;;;13.62;71.47
22181;BME280;11256;50.830;12.834;2023-02-22T12:02:34;97432.66;;;13.66;70.19
22181;BME280;11256;50.830;12.834;2023-02-22T12:13:24;97410.50;;;13.46;68.78
22181;BME280;11256;50.830;12.834;2023-02-22T12:23:58;97417.66;;;13.55;69.61
22181;BME280;11256;50.830;12.834;2023-02-22T12:29:25;97410.41;;;13.51;66.19
22181;BME280;11256;50.830;12.834;2023-02-22T12:39:37;97414.22;;;13.50;67.68
22181;BME280;11256;50.830;12.834;2023-02-22T12:44:41;97403.03;;;13.51;69.26
22181;BME280;11256;50.830;12.834;2023-02-22T12:49:51;97406.47;;;13.57;69.51
22181;BME280;11256;50.830;12.834;2023-02-22T12:55:10;97411.66;;;13.67;69.83
22181;BME280;11256;50.830;12.834;2023-02-22T13:00:21;97410.44;;;13.73;68.99
22181;BME280;11256;50.830;12.834;2023-02-22T13:05:29;97404.56;;;13.79;66.72
22181;BME280;11256;50.830;12.834;2023-02-22T13:16:00;97391.13;;;13.83;69.42
22181;BME280;11256;50.830;12.834;2023-02-22T13:21:15;97383.34;;;13.90;70.32
22181;BME280;11256;50.830;12.834;2023-02-22T13:26:23;97391.78;;;14.02;70.35
22181;BME280;11256;50.830;12.834;2023-02-22T13:42:42;97380.41;;;14.22;72.02
22181;BME280;11256;50.830;12.834;2023-02-22T13:53:06;97377.97;;;14.42;72.58
22181;BME280;11256;50.830;12.834;2023-02-22T13:58:10;97377.66;;;14.44;71.15
22181;BME280;11256;50.830;12.834;2023-02-22T14:13:20;97364.50;;;14.46;65.98
22181;BME280;11256;50.830;12.834;2023-02-22T14:18:35;97370.63;;;14.51;69.64
22181;BME280;11256;50.830;12.834;2023-02-22T14:23:44;97366.38;;;14.37;64.29
22181;BME280;11256;50.830;12.834;2023-02-22T14:34:15;97362.69;;;14.33;64.17
22181;BME280;11256;50.830;12.834;2023-02-22T14:39:24;97360.75;;;14.33;66.42
22181;BME280;11256;50.830;12.834;2023-02-22T14:44:35;97353.00;;;14.27;64.37
22181;BME280;11256;50.830;12.834;2023-02-22T14:49:42;97349.31;;;14.23;65.32
22181;BME280;11256;50.830;12.834;2023-02-22T14:54:59;97328.34;;;14.10;67.83
22181;BME280;11256;50.830;12.834;2023-02-22T15:00:41;97342.00;;;14.18;64.53
22181;BME280;11256;50.830;12.834;2023-02-22T15:05:42;97345.69;;;14.14;65.37
22181;BME280;11256;50.830;12.834;2023-02-22T15:10:45;97342.09;;;14.05;64.77
22181;BME280;11256;50.830;12.834;2023-02-22T15:15:48;97345.56;;;13.97;63.65
22181;BME280;11256;50.830;12.834;2023-02-22T15:20:50;97335.56;;;13.84;64.37
22181;BME280;11256;50.830;12.834;2023-02-22T15:25:55;97333.75;;;13.79;64.88
22181;BME280;11256;50.830;12.834;2023-02-22T15:31:22;97340.63;;;13.77;64.37
22181;BME280;11256;50.830;12.834;2023-02-22T15:36:26;97329.00;;;13.63;65.53
22181;BME280;11256;50.830;12.834;2023-02-22T15:41:31;97331.19;;;13.61;66.30
22181;BME280;11256;50.830;12.834;2023-02-22T15:46:32;97332.13;;;13.56;66.49
22181;BME280;11256;50.830;12.834;2023-02-22T15:51:34;97310.50;;;13.38;65.77
22181;BME280;11256;50.830;12.834;2023-02-22T15:56:36;97325.00;;;13.47;67.26
22181;BME280;11256;50.830;12.834;2023-02-22T16:01:39;97320.91;;;13.36;67.13
22181;BME280;11256;50.830;12.834;2023-02-22T16:06:41;97333.88;;;13.39;68.44
22181;BME280;11256;50.830;12.834;2023-02-22T16:11:44;97336.72;;;13.34;66.18
22181;BME280;11256;50.830;12.834;2023-02-22T16:16:45;97326.09;;;13.24;67.54
22181;BME280;11256;50.830;12.834;2023-02-22T16:21:50;97328.91;;;13.19;68.07
22181;BME280;11256;50.830;12.834;2023-02-22T16:32:11;97334.78;;;13.12;69.04
22181;BME280;11256;50.830;12.834;2023-02-22T16:37:21;97334.38;;;13.05;68.96
22181;BME280;11256;50.830;12.834;2023-02-22T16:42:22;97324.50;;;12.96;69.32
22181;BME280;11256;50.830;12.834;2023-02-22T16:47:25;97333.19;;;12.98;69.39
22181;BME280;11256;50.830;12.834;2023-02-22T16:52:25;97332.66;;;12.96;69.54
22181;BME280;11256;50.830;12.834;2023-02-22T16:57:30;97323.50;;;12.92;69.30
22181;BME280;11256;50.830;12.834;2023-02-22T17:02:31;97320.34;;;12.85;69.36
22181;BME280;11256;50.830;12.834;2023-02-22T17:07:31;97318.84;;;12.79;69.43
22181;BME280;11256;50.830;12.834;2023-02-22T17:12:31;97329.91;;;12.82;69.71
22181;BME280;11256;50.830;12.834;2023-02-22T17:17:32;97330.34;;;12.76;69.65
22181;BME280;11256;50.830;12.834;2023-02-22T17:22:32;97326.91;;;12.70;69.51
22181;BME280;11256;50.830;12.834;2023-02-22T17:27:32;97325.09;;;12.66;69.70
22181;BME280;11256;50.830;12.834;2023-02-22T17:32:33;97328.50;;;12.58;69.36
22181;BME280;11256;50.830;12.834;2023-02-22T17:37:33;97312.34;;;12.53;68.94
22181;BME280;11256;50.830;12.834;2023-02-22T17:42:33;97310.91;;;12.42;69.31
22181;BME280;11256;50.830;12.834;2023-02-22T17:47:34;97307.19;;;12.38;69.16
22181;BME280;11256;50.830;12.834;2023-02-22T17:52:34;97311.59;;;12.34;68.82
22181;BME280;11256;50.830;12.834;2023-02-22T17:57:35;97318.25;;;12.28;69.01
22181;BME280;11256;50.830;12.834;2023-02-22T18:02:35;97320.56;;;12.21;69.05
22181;BME280;11256;50.830;12.834;2023-02-22T18:07:36;97311.97;;;12.14;68.98
22181;BME280;11256;50.830;12.834;2023-02-22T18:12:38;97314.78;;;12.09;69.36
22181;BME280;11256;50.830;12.834;2023-02-22T18:17:38;97309.75;;;12.02;69.13
22181;BME280;11256;50.830;12.834;2023-02-22T18:22:40;97305.31;;;11.93;69.21
22181;BME280;11256;50.830;12.834;2023-02-22T18:27:42;97304.28;;;11.89;69.19
22181;BME280;11256;50.830;12.834;2023-02-22T18:32:42;97304.94;;;11.81;69.49
22181;BME280;11256;50.830;12.834;2023-02-22T18:37:45;97316.13;;;11.79;68.96
22181;BME280;11256;50.830;12.834;2023-02-22T18:42:45;97284.09;;;11.63;69.04
22181;BME280;11256;50.830;12.834;2023-02-22T18:47:46;97287.91;;;11.62;69.17
22181;BME280;11256;50.830;12.834;2023-02-22T18:52:47;97305.31;;;11.61;68.97
22181;BME280;11256;50.830;12.834;2023-02-22T18:57:48;97302.34;;;11.57;68.86
22181;BME280;11256;50.830;12.834;2023-02-22T19:02:49;97301.63;;;11.52;68.89
22181;BME280;11256;50.830;12.834;2023-02-22T19:07:51;97294.16;;;11.44;68.79
22181;BME280;11256;50.830;12.834;2023-02-22T19:12:51;97290.63;;;11.43;68.75
22181;BME280;11256;50.830;12.834;2023-02-22T19:17:51;97284.56;;;11.33;68.62
22181;BME280;11256;50.830;12.834;2023-02-22T19:22:52;97286.25;;;11.29;68.87
22181;BME280;11256;50.830;12.834;2023-02-22T19:27:52;97280.38;;;11.22;68.93
22181;BME280;11256;50.830;12.834;2023-02-22T19:32:55;97289.31;;;11.22;68.81
22181;BME280;11256;50.830;12.834;2023-02-22T19:37:56;97274.38;;;11.06;68.84
22181;BME280;11256;50.830;12.834;2023-02-22T19:42:57;97266.59;;;11.00;68.83
22181;BME280;11256;50.830;12.834;2023-02-22T19:47:57;97276.59;;;11.04;68.96
22181;BME280;11256;50.830;12.834;2023-02-22T19:52:58;97269.91;;;10.97;68.94
22181;BME280;11256;50.830;12.834;2023-02-22T19:57:58;97266.22;;;10.88;68.75
22181;BME280;11256;50.830;12.834;2023-02-22T20:02:58;97266.38;;;10.78;68.86
22181;BME280;11256;50.830;12.834;2023-02-22T20:08:05;97258.41;;;10.68;68.92
22181;BME280;11256;50.830;12.834;2023-02-22T20:13:06;97277.81;;;10.75;68.83
22181;BME280;11256;50.830;12.834;2023-02-22T20:18:06;97266.28;;;10.64;68.90
22181;BME280;11256;50.830;12.834;2023-02-22T20:23:07;97279.09;;;10.59;68.84
22181;BME280;11256;50.830;12.834;2023-02-22T20:28:08;97271.59;;;10.51;68.86
22181;BME280;11256;50.830;12.834;2023-02-22T20:33:09;97270.38;;;10.43;68.89
22181;BME280;11256;50.830;12.834;2023-02-22T20:38:13;97280.66;;;10.41;69.05
22181;BME280;11256;50.830;12.834;2023-02-22T20:43:14;97280.50;;;10.33;69.05
22181;BME280;11256;50.830;12.834;2023-02-22T20:48:14;97259.53;;;10.20;68.97
22181;BME280;11256;50.830;12.834;2023-02-22T20:53:14;97273.59;;;10.22;69.06
22181;BME280;11256;50.830;12.834;2023-02-22T20:58:15;97272.53;;;10.18;69.35
22181;BME280;11256;50.830;12.834;2023-02-22T21:03:18;97251.09;;;9.98;69.30
22181;BME280;11256;50.830;12.834;2023-02-22T21:08:19;97259.50;;;9.96;69.24
22181;BME280;11256;50.830;12.834;2023-02-22T21:13:20;97274.59;;;10.02;69.26
22181;BME280;11256;50.830;12.834;2023-02-22T21:18:20;97257.16;;;9.85;68.92
22181;BME280;11256;50.830;12.834;2023-02-22T21:23:21;97275.78;;;9.91;69.14
22181;BME280;11256;50.830;12.834;2023-02-22T21:28:21;97284.19;;;9.90;68.90
22181;BME280;11256;50.830;12.834;2023-02-22T21:33:21;97274.22;;;9.85;69.24
22181;BME280;11256;50.830;12.834;2023-02-22T21:38:22;97274.00;;;9.82;69.21
22181;BME280;11256;50.830;12.834;2023-02-22T21:43:23;97256.50;;;9.69;69.65
22181;BME280;11256;50.830;12.834;2023-02-22T21:48:24;97277.59;;;9.72;69.31
22181;BME280;11256;50.830;12.834;2023-02-22T21:53:26;97268.19;;;9.65;69.65
22181;BME280;11256;50.830;12.834;2023-02-22T21:58:26;97238.56;;;9.50;69.51
22181;BME280;11256;50.830;12.834;2023-02-22T22:03:27;97250.44;;;9.54;69.23
22181;BME280;11256;50.830;12.834;2023-02-22T22:08:28;97254.81;;;9.50;69.25
22181;BME280;11256;50.830;12.834;2023-02-22T22:13:32;97248.94;;;9.43;69.25
22181;BME280;11256;50.830;12.834;2023-02-22T22:18:33;97248.94;;;9.43;69.23
22181;BME280;11256;50.830;12.834;2023-02-22T22:23:39;97231.72;;;9.29;69.32
22181;BME280;11256;50.830;12.834;2023-02-22T22:28:48;97239.28;;;9.32;69.42
22181;BME280;11256;50.830;12.834;2023-02-22T22:33:48;97252.47;;;9.38;69.26
22181;BME280;11256;50.830;12.834;2023-02-22T22:38:49;97220.47;;;9.17;69.66
22181;BME280;11256;50.830;12.834;2023-02-22T22:43:51;97263.03;;;9.35;69.65
22181;BME280;11256;50.830;12.834;2023-02-22T22:48:53;97250.13;;;9.27;69.40
22181;BME280;11256;50.830;12.834;2023-02-22T22:53:53;97256.66;;;9.26;69.67
22181;BME280;11256;50.830;12.834;2023-02-22T22:58:56;97260.94;;;9.27;69.57
22181;BME280;11256;50.830;12.834;2023-02-22T23:03:59;97253.19;;;9.15;69.44
22181;BME280;11256;50.830;12.834;2023-02-22T23:09:07;97264.78;;;9.21;69.36
22181;BME280;11256;50.830;12.834;2023-02-22T23:14:21;97264.81;;;9.16;69.39
22181;BME280;11256;50.830;12.834;2023-02-22T23:19:23;97259.97;;;9.13;69.59
22181;BME280;11256;50.830;12.834;2023-02-22T23:24:24;97263.78;;;9.07;69.79
22181;BME280;11256;50.830;12.834;2023-02-22T23:29:27;97250.38;;;8.92;69.77
22181;BME280;11256;50.830;12.834;2023-02-22T23:34:29;97258.44;;;9.02;69.67
22181;BME280;11256;50.830;12.834;2023-02-22T23:39:29;97259.00;;;8.99;69.81
22181;BME280;11256;50.830;12.834;2023-02-22T23:44:29;97253.91;;;8.92;69.61
22181;BME280;11256;50.830;12.834;2023-02-22T23:49:30;97244.53;;;8.80;69.68
22181;BME280;11256;50.830;12.834;2023-02-22T23:54:37;97254.78;;;8.83;69.80
22181;BME280;11256;50.830;12.834;2023-02-22T23:59:42;97237.50;;;8.79;69.92
